• Join FlightAware (Why Join?)
  • Login
  • US Flag 
09:23AM EDT


 

Airport Tracker/Info


-or-


 

Live Flight TrackerFlight Track Log ✈ N6711L ✈ 07-Oct-2013 ✈ KAPF - KEYW

Flight Track Log - Related Links

Times and Time Zones

All times are in EDT time to prevent confusion due to time zone crossing. See the N6711L flight status page for this flight to view local times or setup timezone preferences in your user account.

Time Position Orientation Groundspeed Altitude Reporting Facility
EDT Latitude Longitude Course Direction KTS MPH feet Rate Location/Type
08:41AM 26.0650 -81.7642 166° South 132 152 2,800  Level Miami Center
08:42AM 26.0258 -81.7464 158° South 132 152 3,500 720 Climbing Miami Center
08:43AM 25.9889 -81.7286 157° South 143 165 4,300 600 Climbing Miami Center
08:44AM 25.9539 -81.7111 156° South 143 165 4,700 1,320 Climbing Miami Center
08:45AM 25.9070 -81.7731 166° South  Level Estimated
08:45AM 25.9169 -81.6933 157° South 143 165 7,000  Level Miami Center
08:46AM 25.8858 -81.6828 163° South 172 198 7,100  Climbing Miami Center
08:47AM 25.8344 -81.6600 158° South 172 198 7,100  Level Miami Center
08:48AM 25.7872 -81.6397 159° South 172 198 7,100 -60 Level Miami Center
08:49AM 25.7522 -81.6244 159° South 172 198 7,000 -60 Descending Miami Center
08:50AM 25.7006 -81.6017 158° South 172 198 7,000 60 Level Miami Center
08:51AM 25.6492 -81.5814 160° South 177 204 7,200 60 Climbing Miami Center
08:52AM 25.6081 -81.5589 154° Southeast 177 204 7,200  Level Miami Center
08:53AM 25.5586 -81.5386 160° South 182 209 7,200 -180 Level Miami Center
08:54AM 25.5114 -81.5161 157° South 182 209 6,900 -360 Descending Miami Center
08:55AM 25.4611 -81.5186 183° South 188 216 6,500 -420 Descending Miami Center
08:56AM 25.4047 -81.5189 180° South 180 207 6,100 240 Descending Miami Center
08:57AM 25.3525 -81.5169 178° South 180 207 7,000 420 Climbing Miami Center
08:58AM 25.3200 -81.5569 228° Southwest 180 207 7,000 -1,380 Level Miami Center
08:59AM 25.2569 -81.5728 193° South 177 204 4,300 -1,440 Descending Miami Center
09:00AM 25.2061 -81.5894 197° South 177 204 4,200 1,320 Descending Miami Center
09:01AM 25.1747 -81.5950 189° South 177 204 7,000  Climbing Miami Center
09:02AM 25.1200 -81.6111 195° South 171 197 4,200 -1,500 Descending Miami Center
09:03AM 25.0756 -81.6211 192° South 171 197 4,100  Descending Miami Center
09:04AM 25.0292 -81.6353 195° South 166 191 4,200 -120 Climbing Miami Center
09:05AM 24.9811 -81.6381 183° South 166 191 3,900 -420 Descending Miami Center
09:06AM 24.9333 -81.6314 173° South 166 191 3,400 -480 Descending Miami Center
09:07AM 24.8833 -81.6250 173° South 177 204 3,000 -420 Descending Miami Center
09:08AM 24.8336 -81.6183 173° South 177 204 2,600 -600 Descending Miami Center
09:09AM 24.7858 -81.6119 173° South 177 204 1,900 -480 Descending Miami Center
09:10AM 24.7378 -81.6056 173° South 177 204 1,700 -120 Descending Miami Center
09:11AM 24.6919 -81.6017 176° South 177 204 1,700  Level Miami Center
09:13AM 24.6599 -81.6736 244° Southwest  Level FlightAware Approximate
09:20AM 24.5500 -81.7500 190° South  Level FlightAware Approximate
09:21AM 24.5561 -81.7596 190° South  Level Estimated
09:22AM 24.5561 -81.7596 190° South  Level Estimated
09:23AM 24.5561 -81.7596 190° South  Level Estimated
09:24AM 24.5561 -81.7596 190° South  Level Estimated
09:25AM 24.5561 -81.7596 190° South  Level Estimated
09:26AM 24.5561 -81.7596 190° South  Level Estimated